Time;durP1;ratioP1;P1;durP2;ratioP2;P2;SDS_P1;SDS_P2;PMS_P1;PMS_P2;Temp;Humidity;BMP_temperature;BMP_pressure;BME280_temperature;BME280_humidity;BME280_pressure;Samples;Min_cycle;Max_cycle;Signal;HPM_P1;HPM_P2
2023/10/18 13:38:53;;;;;;;1.83;1.23;;;;;;;11.78;57.59;100645.63;5005605;28;20729;-87
2023/10/18 13:41:20;;;;;;;2.65;1.45;;;;;;;11.50;58.03;100646.31;4988472;28;20499;-88
2023/10/18 13:43:48;;;;;;;1.98;1.40;;;;;;;11.62;58.70;100647.78;4988125;28;20042;-88
2023/10/18 13:46:18;;;;;;;2.95;1.50;;;;;;;11.55;58.36;100644.41;4971950;28;20062;-86
2023/10/18 13:48:50;;;;;;;2.08;1.77;;;;;;;11.54;59.83;100639.19;4988655;28;20046;-87
2023/10/18 13:51:20;;;;;;;3.17;2.10;;;;;;;11.59;59.89;100631.09;4972130;28;20453;-87
2023/10/18 13:53:48;;;;;;;2.58;2.03;;;;;;;11.49;60.29;100638.41;4972066;28;20049;-87
2023/10/18 13:56:15;;;;;;;2.83;1.60;;;;;;;11.41;63.37;100643.00;4971819;28;20576;-87
2023/10/18 13:58:42;;;;;;;2.47;1.67;;;;;;;11.48;59.67;100628.72;4971547;28;20070;-87
2023/10/18 14:01:16;;;;;;;1.88;1.33;;;;;;;11.44;61.05;100619.16;4987896;28;20048;-86
2023/10/18 14:03:48;;;;;;;1.33;1.15;;;;;;;11.27;63.52;100624.84;4972792;28;20054;-87
2023/10/18 14:06:15;;;;;;;2.88;1.40;;;;;;;11.20;66.23;100618.81;5070781;28;20054;-87
2023/10/18 14:08:45;;;;;;;3.33;1.90;;;;;;;11.16;66.55;100622.44;4971669;28;20134;-87
2023/10/18 14:11:13;;;;;;;5.78;5.28;;;;;;;11.00;63.54;100621.03;4988188;28;20074;-88
2023/10/18 14:13:44;;;;;;;4.95;2.53;;;;;;;11.09;61.79;100614.69;4987738;28;20087;-87
2023/10/18 14:16:12;;;;;;;2.40;2.05;;;;;;;11.06;62.83;100614.75;4971256;28;20048;-87
2023/10/18 14:18:43;;;;;;;11.32;5.47;;;;;;;10.95;65.13;100613.25;4971409;28;20125;-86
2023/10/18 14:21:12;;;;;;;32.97;17.92;;;;;;;10.87;64.76;100606.38;4972213;28;20057;-87
2023/10/18 14:23:45;;;;;;;102.18;55.47;;;;;;;10.92;67.82;100607.13;4971570;28;20074;-86
2023/10/18 14:26:12;;;;;;;35.20;25.27;;;;;;;10.83;68.23;100602.94;4940071;28;20038;-86
2023/10/18 14:28:42;;;;;;;20.30;15.35;;;;;;;10.71;67.27;100596.16;4932594;28;20547;-87
2023/10/18 14:31:12;;;;;;;3.45;2.80;;;;;;;10.74;67.07;100591.69;4948897;28;20519;-86
2023/10/18 14:33:40;;;;;;;5.97;2.10;;;;;;;10.58;70.52;100597.31;4967113;28;20051;-87
2023/10/18 14:36:23;;;;;;;4.32;3.92;;;;;;;10.58;70.25;100591.16;4947581;28;20401;-87
2023/10/18 14:38:53;;;;;;;3.15;2.30;;;;;;;10.63;71.88;100586.66;4965967;28;20047;-87
2023/10/18 14:41:22;;;;;;;4.18;2.58;;;;;;;10.65;70.70;100585.72;4952945;28;20141;-87
2023/10/18 14:43:58;;;;;;;4.50;2.30;;;;;;;10.54;70.30;100577.16;4940564;28;20134;-87
2023/10/18 14:46:27;;;;;;;2.95;1.83;;;;;;;10.58;73.85;100576.19;4957890;28;20146;-87
2023/10/18 14:48:56;;;;;;;2.15;1.50;;;;;;;10.59;71.87;100577.03;4956475;28;20038;-87
2023/10/18 14:51:24;;;;;;;2.33;1.90;;;;;;;10.54;72.58;100573.66;4928396;28;20047;-87
2023/10/18 14:53:52;;;;;;;2.20;1.60;;;;;;;10.46;73.67;100562.38;4926704;29;20420;-86
2023/10/18 14:56:22;;;;;;;1.55;1.30;;;;;;;10.31;74.76;100569.72;4945541;28;20047;-86
2023/10/18 14:58:50;;;;;;;2.80;1.50;;;;;;;10.19;77.13;100567.31;4937211;28;20129;-87
2023/10/18 15:01:17;;;;;;;3.92;1.75;;;;;;;10.28;78.58;100563.66;4936606;28;20046;-87
2023/10/18 15:03:46;;;;;;;3.92;1.80;;;;;;;9.98;79.52;100563.31;4936352;28;20143;-87
2023/10/18 15:06:16;;;;;;;3.08;1.50;;;;;;;9.88;81.09;100554.72;4952542;28;20047;-87
2023/10/18 15:08:45;;;;;;;3.28;1.67;;;;;;;9.75;83.08;100554.97;4936570;28;20047;-86
2023/10/18 15:11:13;;;;;;;2.42;1.58;;;;;;;9.56;84.47;100554.44;4934078;28;20479;-88
2023/10/18 15:13:44;;;;;;;3.42;1.58;;;;;;;9.45;86.17;100557.28;4922854;28;20043;-87
2023/10/18 15:16:11;;;;;;;3.40;1.70;;;;;;;9.41;86.95;100549.44;4933355;29;20120;-87
2023/10/18 15:18:38;;;;;;;2.03;1.48;;;;;;;9.35;88.22;100560.09;4917688;29;20499;-87
2023/10/18 15:21:05;;;;;;;1.95;1.60;;;;;;;9.14;88.93;100558.69;4933361;28;20066;-87
2023/10/18 15:23:32;;;;;;;3.05;1.50;;;;;;;9.12;88.09;100548.16;4933135;28;20520;-87
